Terminal Aerodrome Forecast
Issued by NWS Bismarck, ND

Home | Current Version | Previous Version | Text Only | Print | Product List | Glossary Off
Versions: 1 2 3 4 5 6 7 8 9 10 11 12 13 14 15 16

000
FTUS43 KBIS 131300 AAA
TAFISN
TAF AMD
KISN 131343Z 1314/1412 30006KT P6SM FEW090
     FM131500 33010G17KT P6SM SKC
     FM131800 33016G24KT P6SM SKC
     FM140400 36010KT P6SM FEW250
     FM140700 36006KT P6SM FEW250=

USA.gov is the U.S. government's official web portal to all federal, state and local government web resources and services.